In Rescue
 
Open Full Screen Window  High Contrast Mode
Wind Gusting 14 knots
09
October 04, 2023 12:11 AM EDT
Weather Information
Wind Direction
  180 °
Wind Speed
  09 kt (10 mph)
Wind Gust
  14 kt (16 mph)
Altimeter
29.94 in
Visibility
10 SM
Temperature
19° C
66° F
Dewpoint
14° C
57° F
Humidity
73%
Sky Condition
Clear
VFR

METAR KSAW 040411Z AUTO 18009G14KT 10SM CLR 19/14 A2994 RMK AO2 T01850141

FAA Disclaimer: The data displayed is for advisory purposes only and is not to be used for flight planning or operations.